createdAt,value
2018-05-12T00:00:49.904Z,99.90
2018-05-12T00:03:17.376Z,99.90
2018-05-12T00:05:44.995Z,99.90
2018-05-12T00:08:12.413Z,99.90
2018-05-12T00:10:39.889Z,99.90
2018-05-12T00:13:07.463Z,99.90
2018-05-12T00:15:34.930Z,99.90
2018-05-12T00:18:02.392Z,99.90
2018-05-12T00:20:29.867Z,99.90
2018-05-12T00:22:57.392Z,99.90
2018-05-12T00:25:24.900Z,99.90
2018-05-12T00:27:52.411Z,99.90
2018-05-12T00:30:20.649Z,99.90
2018-05-12T00:32:48.124Z,99.90
2018-05-12T00:35:15.580Z,99.90
2018-05-12T00:37:43.099Z,99.90
2018-05-12T00:40:10.560Z,99.90
2018-05-12T00:42:38.034Z,99.90
2018-05-12T00:45:05.695Z,99.90
2018-05-12T00:47:33.264Z,99.90
2018-05-12T00:50:00.851Z,99.90
2018-05-12T00:52:28.414Z,99.90
2018-05-12T00:54:55.989Z,99.90
2018-05-12T00:57:23.554Z,99.90
2018-05-12T00:59:51.120Z,99.90
2018-05-12T01:02:18.702Z,99.90
2018-05-12T01:04:46.328Z,99.90
2018-05-12T01:07:13.768Z,99.90
2018-05-12T01:09:42.024Z,99.90
2018-05-12T01:12:09.488Z,99.90
2018-05-12T01:14:36.954Z,99.90
2018-05-12T01:17:04.443Z,99.90
2018-05-12T01:19:31.915Z,99.90
2018-05-12T01:21:59.364Z,99.90
2018-05-12T01:24:26.850Z,99.90
2018-05-12T01:26:54.335Z,99.90
2018-05-12T01:29:21.892Z,99.90
2018-05-12T01:31:49.377Z,99.90
2018-05-12T01:34:16.858Z,99.90
2018-05-12T01:36:44.316Z,99.90
2018-05-12T01:39:11.905Z,99.90
2018-05-12T01:41:39.376Z,99.90
2018-05-12T01:44:06.909Z,99.90
2018-05-12T01:46:34.388Z,99.90
2018-05-12T01:49:01.966Z,99.90
2018-05-12T01:51:29.425Z,99.90
2018-05-12T01:53:56.919Z,99.90
2018-05-12T01:56:24.398Z,99.90
2018-05-12T01:58:51.844Z,99.90
2018-05-12T02:01:19.418Z,99.90
2018-05-12T02:03:47.000Z,99.90
2018-05-12T02:06:14.561Z,99.90
2018-05-12T02:08:42.135Z,99.90
2018-05-12T02:11:09.708Z,99.90
2018-05-12T02:13:37.181Z,99.90
2018-05-12T02:16:04.650Z,99.90
2018-05-12T02:18:32.204Z,99.90
2018-05-12T02:20:59.674Z,99.90
2018-05-12T02:23:27.132Z,99.90
2018-05-12T02:25:54.616Z,99.90
2018-05-12T02:28:22.087Z,99.90
2018-05-12T02:30:49.564Z,99.90
2018-05-12T02:33:17.031Z,99.90
2018-05-12T02:35:44.500Z,99.90
2018-05-12T02:38:12.087Z,99.90
2018-05-12T02:40:39.641Z,99.90
2018-05-12T02:43:07.135Z,99.90
2018-05-12T02:45:34.607Z,99.90
2018-05-12T02:48:03.573Z,99.90
2018-05-12T02:50:31.070Z,99.90
2018-05-12T02:52:58.727Z,99.90
2018-05-12T02:55:26.126Z,99.90
2018-05-12T02:57:53.598Z,99.90
2018-05-12T03:00:21.067Z,99.90
2018-05-12T03:02:48.513Z,99.90
2018-05-12T03:05:16.088Z,99.90
2018-05-12T03:07:43.554Z,99.90
2018-05-12T03:10:11.023Z,99.90
2018-05-12T03:12:38.480Z,99.90
2018-05-12T03:15:05.960Z,99.90
2018-05-12T03:17:33.596Z,99.90
2018-05-12T03:20:01.067Z,99.90
2018-05-12T03:22:28.589Z,99.90
2018-05-12T03:24:56.145Z,99.90
2018-05-12T03:27:23.612Z,99.90
2018-05-12T03:29:51.068Z,99.90
2018-05-12T03:32:18.580Z,99.90
2018-05-12T03:34:46.039Z,99.90
2018-05-12T03:37:13.502Z,99.90
2018-05-12T03:39:41.065Z,99.90
2018-05-12T03:42:08.530Z,99.90
2018-05-12T03:44:36.015Z,99.90
2018-05-12T03:47:03.639Z,99.90
2018-05-12T03:49:31.115Z,99.90
2018-05-12T03:51:58.570Z,99.90
2018-05-12T03:54:26.105Z,99.90
2018-05-12T03:56:53.664Z,99.90
2018-05-12T03:59:21.116Z,99.90
2018-05-12T04:01:48.622Z,99.90
2018-05-12T04:04:28.967Z,99.90
2018-05-12T04:07:08.488Z,99.90
2018-05-12T04:12:39.795Z,99.90
2018-05-12T04:15:07.258Z,99.90
2018-05-12T04:17:34.716Z,99.90
2018-05-12T04:20:03.011Z,99.90
2018-05-12T04:22:31.230Z,99.90
2018-05-12T04:24:58.687Z,99.90
2018-05-12T04:27:26.190Z,99.90
2018-05-12T04:29:53.639Z,99.90
2018-05-12T04:32:21.112Z,99.90
2018-05-12T04:34:48.684Z,99.90
2018-05-12T04:37:16.266Z,99.90
2018-05-12T04:39:43.726Z,99.90
2018-05-12T04:42:11.207Z,99.90
2018-05-12T04:44:38.655Z,99.90
2018-05-12T04:47:06.149Z,99.90
2018-05-12T04:49:33.629Z,99.90
2018-05-12T04:52:01.084Z,99.90
2018-05-12T04:54:28.532Z,99.90
2018-05-12T04:56:56.027Z,99.90
2018-05-12T04:59:23.599Z,99.90
2018-05-12T05:01:51.090Z,99.90
2018-05-12T05:04:18.632Z,99.90
2018-05-12T05:06:46.096Z,99.90
2018-05-12T05:09:13.566Z,99.90
2018-05-12T05:11:41.132Z,99.90
2018-05-12T05:14:08.630Z,99.90
2018-05-12T05:16:36.183Z,99.90
2018-05-12T05:19:03.768Z,99.90
2018-05-12T05:21:31.237Z,99.90
2018-05-12T05:23:58.676Z,99.90
2018-05-12T05:26:26.186Z,99.90
2018-05-12T05:28:53.628Z,99.90
2018-05-12T05:31:21.090Z,99.90
2018-05-12T05:33:48.541Z,99.90
2018-05-12T05:36:15.992Z,99.90
2018-05-12T05:38:44.224Z,99.90
2018-05-12T05:41:11.693Z,99.90
2018-05-12T05:43:39.171Z,99.90
2018-05-12T05:46:06.639Z,99.90
2018-05-12T05:48:34.115Z,99.90
2018-05-12T05:51:01.596Z,99.90
2018-05-12T05:53:29.148Z,99.90
2018-05-12T05:55:56.616Z,99.90
2018-05-12T05:58:24.099Z,99.90
2018-05-12T06:00:51.653Z,99.90
2018-05-12T06:03:19.143Z,99.90
2018-05-12T06:05:46.588Z,99.90
2018-05-12T06:08:14.031Z,99.90
2018-05-12T06:10:41.566Z,99.90
2018-05-12T06:13:09.116Z,99.90
2018-05-12T06:15:36.556Z,99.90
2018-05-12T06:18:04.083Z,99.90
2018-05-12T06:20:31.518Z,99.90
2018-05-12T06:22:58.999Z,99.90
2018-05-12T06:25:26.457Z,99.90
2018-05-12T06:27:54.048Z,99.90
2018-05-12T06:30:21.499Z,99.90
2018-05-12T06:32:48.983Z,99.90
2018-05-12T06:35:16.430Z,99.90
2018-05-12T06:37:43.935Z,99.90
2018-05-12T06:40:11.556Z,99.90
2018-05-12T06:42:39.065Z,99.90
2018-05-12T06:45:06.540Z,99.90
2018-05-12T06:47:34.002Z,99.90
2018-05-12T06:50:01.561Z,99.90
2018-05-12T06:52:29.013Z,99.90
2018-05-12T06:54:56.546Z,99.90
2018-05-12T06:57:24.088Z,99.90
2018-05-12T06:59:51.645Z,99.90
2018-05-12T07:02:19.120Z,99.90
2018-05-12T07:04:46.567Z,99.90
2018-05-12T07:07:14.029Z,99.90
2018-05-12T07:09:41.548Z,99.90
2018-05-12T07:12:09.011Z,99.90
2018-05-12T07:14:36.498Z,99.90
2018-05-12T07:17:04.045Z,99.90
2018-05-12T07:19:31.555Z,99.90
2018-05-12T07:21:59.097Z,99.90
2018-05-12T07:24:27.717Z,99.90
2018-05-12T07:26:55.175Z,99.90
2018-05-12T07:29:22.638Z,99.90
2018-05-12T07:31:50.107Z,99.90
2018-05-12T07:34:17.584Z,99.90
2018-05-12T07:36:45.052Z,99.90
2018-05-12T07:39:12.632Z,99.90
2018-05-12T07:41:40.190Z,99.90
2018-05-12T07:44:07.760Z,99.90
2018-05-12T07:46:35.225Z,99.90
2018-05-12T07:49:02.686Z,99.90
2018-05-12T07:51:30.221Z,99.90
2018-05-12T07:53:57.743Z,99.90
2018-05-12T07:56:25.208Z,99.90
2018-05-12T07:58:52.676Z,99.90
2018-05-12T08:01:20.147Z,99.90
2018-05-12T08:03:47.610Z,99.90
2018-05-12T08:06:15.081Z,99.90
2018-05-12T08:08:42.552Z,99.90
2018-05-12T08:11:10.019Z,99.90
2018-05-12T08:13:37.485Z,99.90
2018-05-12T08:16:04.934Z,99.90
2018-05-12T08:18:32.385Z,99.90
2018-05-12T08:21:00.608Z,99.90
2018-05-12T08:23:28.103Z,99.90
2018-05-12T08:25:55.555Z,99.90
2018-05-12T08:28:23.046Z,99.90
2018-05-12T08:30:50.872Z,99.90
2018-05-12T08:33:18.356Z,99.90
2018-05-12T08:35:45.820Z,99.90
2018-05-12T08:38:13.319Z,99.90
2018-05-12T08:40:40.843Z,99.90
2018-05-12T08:43:09.105Z,99.90
2018-05-12T08:45:36.670Z,99.90
2018-05-12T08:48:04.131Z,99.90
2018-05-12T08:50:31.680Z,99.90
2018-05-12T08:52:59.372Z,99.90
2018-05-12T08:55:27.177Z,99.90
2018-05-12T08:57:54.716Z,99.90
2018-05-12T09:00:22.215Z,99.90
2018-05-12T09:02:52.060Z,99.90
2018-05-12T09:05:20.283Z,99.90
2018-05-12T09:07:47.750Z,99.90
2018-05-12T09:10:15.233Z,99.90
2018-05-12T09:12:45.215Z,99.90
2018-05-12T09:15:14.994Z,99.90
2018-05-12T09:17:42.464Z,99.90
2018-05-12T09:20:10.080Z,99.90
2018-05-12T09:22:39.042Z,99.90
2018-05-12T09:25:06.501Z,99.90
2018-05-12T09:27:34.031Z,99.90
2018-05-12T09:30:01.487Z,99.90
2018-05-12T09:32:28.955Z,99.90
2018-05-12T09:34:56.427Z,99.90
2018-05-12T09:37:23.981Z,99.80
2018-05-12T09:39:51.460Z,99.90
2018-05-12T09:42:19.024Z,99.30
2018-05-12T09:44:46.434Z,99.90
2018-05-12T09:47:13.851Z,99.60
2018-05-12T09:49:41.361Z,99.70
2018-05-12T09:52:08.908Z,97.70
2018-05-12T09:54:36.369Z,97.00
2018-05-12T09:57:03.829Z,95.90
2018-05-12T09:59:31.353Z,97.30
2018-05-12T10:01:58.728Z,99.10
2018-05-12T10:04:26.942Z,93.80
2018-05-12T10:06:54.463Z,93.80
2018-05-12T10:09:21.927Z,92.10
2018-05-12T10:11:49.485Z,90.50
2018-05-12T10:14:16.960Z,89.40
2018-05-12T10:16:44.458Z,88.70
2018-05-12T10:19:11.995Z,90.80
2018-05-12T10:21:39.479Z,90.20
2018-05-12T10:24:06.974Z,83.10
2018-05-12T10:26:34.434Z,74.60
2018-05-12T10:29:01.998Z,80.90
2018-05-12T10:31:29.459Z,81.90
2018-05-12T10:33:56.931Z,79.40
2018-05-12T10:36:24.388Z,78.00
2018-05-12T10:38:51.923Z,74.90
2018-05-12T10:41:19.357Z,77.40
2018-05-12T10:43:46.822Z,75.10
2018-05-12T10:46:14.299Z,74.60
2018-05-12T10:48:41.778Z,74.70
2018-05-12T10:51:09.251Z,77.80
2018-05-12T10:53:36.803Z,74.90
2018-05-12T10:56:04.383Z,72.60
2018-05-12T10:58:31.832Z,70.30
2018-05-12T11:00:59.689Z,60.40
2018-05-12T11:03:27.128Z,60.80
2018-05-12T11:05:55.355Z,59.80
2018-05-12T11:08:22.866Z,59.80
2018-05-12T11:10:50.309Z,58.00
2018-05-12T11:13:17.766Z,57.10
2018-05-12T11:15:45.217Z,57.70
2018-05-12T11:18:12.663Z,60.30
2018-05-12T11:20:40.888Z,60.00
2018-05-12T11:23:08.352Z,60.00
2018-05-12T11:25:35.839Z,60.80
2018-05-12T11:28:03.403Z,57.30
2018-05-12T11:30:30.872Z,57.90
2018-05-12T11:32:58.346Z,57.10
2018-05-12T11:35:25.808Z,53.20
2018-05-12T11:37:53.350Z,53.00
2018-05-12T11:40:20.793Z,53.00
2018-05-12T11:42:49.072Z,48.70
2018-05-12T11:45:16.538Z,48.70
2018-05-12T11:47:44.112Z,48.20
2018-05-12T11:50:11.653Z,46.00
2018-05-12T11:52:39.043Z,47.20
2018-05-12T11:55:06.615Z,46.80
2018-05-12T11:57:34.074Z,46.30
2018-05-12T12:00:01.536Z,46.40
2018-05-12T12:02:29.094Z,48.40
2018-05-12T12:04:56.580Z,48.00
2018-05-12T12:07:24.040Z,46.60
2018-05-12T12:09:51.526Z,46.60
2018-05-12T12:12:18.997Z,46.60
2018-05-12T12:14:46.570Z,45.50
2018-05-12T12:17:14.044Z,44.40
2018-05-12T12:19:41.535Z,45.70
2018-05-12T12:22:09.086Z,45.00
2018-05-12T12:24:36.551Z,46.00
2018-05-12T12:27:04.041Z,42.70
2018-05-12T12:29:31.487Z,40.80
2018-05-12T12:31:58.966Z,41.10
2018-05-12T12:34:26.485Z,41.70
2018-05-12T12:36:53.942Z,40.30
2018-05-12T12:39:22.177Z,40.60
2018-05-12T12:41:49.632Z,40.60
2018-05-12T12:44:17.127Z,39.40
2018-05-12T12:46:44.763Z,39.90
2018-05-12T12:49:12.231Z,39.70
2018-05-12T12:51:39.792Z,38.70
2018-05-12T12:54:07.163Z,37.30
2018-05-12T12:56:34.686Z,38.00
2018-05-12T12:59:02.240Z,35.70
2018-05-12T13:01:29.707Z,34.40
2018-05-12T13:03:57.189Z,33.80
2018-05-12T13:06:24.658Z,35.60
2018-05-12T13:08:52.160Z,34.90
2018-05-12T13:11:19.637Z,34.90
2018-05-12T13:13:47.861Z,33.80
2018-05-12T13:16:15.344Z,33.80
2018-05-12T13:18:42.973Z,34.30
2018-05-12T13:21:11.322Z,34.10
2018-05-12T13:23:38.796Z,34.10
2018-05-12T13:26:06.236Z,32.80
2018-05-12T13:28:33.719Z,30.70
2018-05-12T13:31:01.177Z,31.50
2018-05-12T13:33:28.734Z,32.50
2018-05-12T13:35:56.128Z,30.60
2018-05-12T13:38:23.592Z,31.00
2018-05-12T13:40:51.075Z,30.50
2018-05-12T13:43:18.549Z,30.60
2018-05-12T13:45:46.060Z,31.00
2018-05-12T13:48:13.483Z,30.90
2018-05-12T13:50:40.962Z,29.70
2018-05-12T13:53:08.418Z,30.70
2018-05-12T13:55:35.875Z,29.60
2018-05-12T13:58:03.334Z,29.60
2018-05-12T14:00:30.785Z,29.30
2018-05-12T14:02:58.227Z,28.60
2018-05-12T14:05:25.698Z,29.50
2018-05-12T14:07:53.240Z,29.50
2018-05-12T14:10:20.714Z,29.90
2018-05-12T14:12:48.159Z,29.50
2018-05-12T14:15:15.646Z,30.20
2018-05-12T14:17:43.111Z,29.60
2018-05-12T14:20:10.576Z,29.10
2018-05-12T14:22:38.048Z,29.50
2018-05-12T14:25:05.498Z,28.80
2018-05-12T14:27:32.966Z,27.90
2018-05-12T14:30:00.430Z,28.00
2018-05-12T14:32:28.092Z,27.60
2018-05-12T14:34:56.323Z,26.60
2018-05-12T14:37:23.883Z,26.60
2018-05-12T14:39:51.336Z,26.70
2018-05-12T14:42:18.818Z,26.30
2018-05-12T14:44:46.285Z,26.70
2018-05-12T14:47:13.732Z,26.40
2018-05-12T14:49:41.202Z,26.40
2018-05-12T14:52:08.674Z,26.80
2018-05-12T14:54:36.116Z,26.10
2018-05-12T14:57:04.353Z,25.50
2018-05-12T14:59:31.827Z,25.50
2018-05-12T15:01:59.272Z,26.00
2018-05-12T15:04:26.720Z,25.80
2018-05-12T15:06:54.948Z,26.60
2018-05-12T15:09:22.420Z,26.60
2018-05-12T15:11:49.895Z,26.20
2018-05-12T15:14:17.381Z,26.90
2018-05-12T15:16:44.850Z,26.80
2018-05-12T15:19:12.304Z,26.00
2018-05-12T15:21:39.763Z,26.60
2018-05-12T15:24:07.208Z,26.60
2018-05-12T15:26:34.661Z,25.60
2018-05-12T15:29:02.880Z,25.90
2018-05-12T15:31:30.398Z,25.90
2018-05-12T15:33:57.960Z,25.80
2018-05-12T15:36:25.533Z,25.90
2018-05-12T15:38:53.127Z,25.90
2018-05-12T15:41:21.380Z,25.80
2018-05-12T15:43:48.881Z,25.80
2018-05-12T15:46:16.326Z,26.00
2018-05-12T15:48:43.780Z,26.40
2018-05-12T15:51:11.234Z,26.80
2018-05-12T15:53:38.687Z,26.80
2018-05-12T15:56:06.136Z,27.00
2018-05-12T15:58:34.358Z,26.80
2018-05-12T16:01:01.808Z,26.50
2018-05-12T16:03:29.274Z,26.80
2018-05-12T16:05:57.616Z,26.70
2018-05-12T16:08:25.181Z,26.70
2018-05-12T16:10:52.663Z,26.80
2018-05-12T16:13:20.139Z,25.90
2018-05-12T16:15:47.689Z,26.60
2018-05-12T16:18:15.157Z,27.20
2018-05-12T16:20:42.616Z,27.00
2018-05-12T16:23:10.104Z,26.50
2018-05-12T16:25:37.560Z,26.40
2018-05-12T16:28:05.032Z,26.70
2018-05-12T16:30:32.495Z,26.60
2018-05-12T16:32:59.962Z,26.20
2018-05-12T16:35:27.404Z,26.60
2018-05-12T16:37:55.650Z,27.10
2018-05-12T16:40:23.116Z,27.10
2018-05-12T16:42:50.567Z,27.10
2018-05-12T16:45:18.143Z,27.00
2018-05-12T16:47:45.634Z,27.50
2018-05-12T16:50:13.283Z,27.80
2018-05-12T16:52:40.670Z,28.60
2018-05-12T16:55:08.154Z,28.30
2018-05-12T16:57:35.634Z,29.00
2018-05-12T17:00:03.870Z,30.50
2018-05-12T17:02:31.369Z,30.00
2018-05-12T17:04:58.846Z,30.60
2018-05-12T17:07:26.318Z,30.90
2018-05-12T17:09:53.936Z,30.30
2018-05-12T17:12:22.210Z,32.00
2018-05-12T17:14:49.628Z,32.00
2018-05-12T17:17:17.080Z,32.40
2018-05-12T17:19:44.550Z,33.50
2018-05-12T17:22:12.039Z,34.00
2018-05-12T17:24:39.482Z,33.20
2018-05-12T17:27:06.943Z,34.00
2018-05-12T17:29:34.408Z,34.50
2018-05-12T17:32:01.948Z,33.90
2018-05-12T17:34:29.484Z,34.00
2018-05-12T17:36:56.953Z,35.00
2018-05-12T17:39:24.427Z,35.10
2018-05-12T17:41:51.924Z,34.40
2018-05-12T17:44:19.531Z,34.80
2018-05-12T17:46:47.032Z,36.80
2018-05-12T17:49:14.476Z,36.10
2018-05-12T17:51:41.947Z,37.40
2018-05-12T17:54:09.384Z,38.60
2018-05-12T17:56:36.940Z,38.50
2018-05-12T17:59:04.398Z,39.70
2018-05-12T18:01:31.856Z,40.10
2018-05-12T18:03:59.388Z,39.40
2018-05-12T18:09:20.715Z,42.70
2018-05-12T18:11:48.174Z,42.60
2018-05-12T18:14:15.736Z,43.50
2018-05-12T18:16:43.208Z,43.60
2018-05-12T18:19:10.667Z,44.50
2018-05-12T18:21:38.134Z,45.20
2018-05-12T18:24:05.631Z,45.70
2018-05-12T18:26:33.088Z,46.10
2018-05-12T18:29:00.570Z,46.10
2018-05-12T18:31:28.135Z,46.70
2018-05-12T18:33:55.607Z,47.30
2018-05-12T18:36:23.191Z,47.60
2018-05-12T18:38:50.758Z,48.70
2018-05-12T18:41:18.327Z,48.80
2018-05-12T18:43:45.780Z,49.50
2018-05-12T18:46:13.271Z,49.70
2018-05-12T18:48:40.834Z,50.20
2018-05-12T18:51:08.315Z,50.20
2018-05-12T18:53:36.494Z,51.40
2018-05-12T18:56:04.067Z,52.10
2018-05-12T18:58:31.620Z,52.20
2018-05-12T19:00:59.065Z,52.40
2018-05-12T19:03:26.561Z,53.20
2018-05-12T19:05:54.099Z,53.80
2018-05-12T19:08:21.649Z,53.50
2018-05-12T19:10:49.133Z,53.80
2018-05-12T19:13:17.379Z,54.50
2018-05-12T19:15:44.929Z,54.50
2018-05-12T19:18:12.407Z,55.10
2018-05-12T19:20:39.856Z,55.20
2018-05-12T19:23:07.316Z,55.90
2018-05-12T19:25:34.791Z,56.10
2018-05-12T19:28:02.247Z,56.30
2018-05-12T19:30:29.883Z,56.80
2018-05-12T19:32:57.359Z,57.30
2018-05-12T19:35:25.574Z,57.80
2018-05-12T19:37:53.093Z,57.70
2018-05-12T19:40:20.659Z,58.50
2018-05-12T19:42:48.183Z,58.80
2018-05-12T19:45:16.405Z,59.60
2018-05-12T19:47:43.943Z,59.60
2018-05-12T19:50:11.468Z,59.60
2018-05-12T19:52:38.932Z,60.60
2018-05-12T19:55:06.415Z,61.80
2018-05-12T19:57:35.390Z,64.30
2018-05-12T20:00:02.854Z,64.20
2018-05-12T20:02:30.337Z,66.20
2018-05-12T20:04:57.816Z,68.00
2018-05-12T20:07:25.278Z,70.10
2018-05-12T20:09:52.828Z,71.40
2018-05-12T20:12:22.003Z,74.40
2018-05-12T20:14:49.471Z,77.30
2018-05-12T20:17:17.706Z,84.40
2018-05-12T20:19:45.298Z,84.40
2018-05-12T20:22:12.855Z,90.30
2018-05-12T20:24:40.318Z,92.40
2018-05-12T20:27:07.796Z,94.70
2018-05-12T20:29:35.263Z,96.00
2018-05-12T20:32:02.716Z,98.30
2018-05-12T20:34:30.199Z,99.90
2018-05-12T20:36:57.669Z,99.90
2018-05-12T20:39:25.178Z,99.90
2018-05-12T20:41:52.628Z,99.90
2018-05-12T20:44:20.192Z,99.90
2018-05-12T20:46:47.780Z,99.90
2018-05-12T20:49:15.340Z,99.90
2018-05-12T20:51:42.798Z,99.90
2018-05-12T20:54:10.303Z,99.90
2018-05-12T20:56:37.763Z,99.90
2018-05-12T20:59:05.417Z,99.90
2018-05-12T21:01:32.896Z,99.90
2018-05-12T21:04:00.343Z,99.90
2018-05-12T21:06:27.846Z,99.90
2018-05-12T21:08:55.326Z,99.90
2018-05-12T21:11:22.803Z,99.90
2018-05-12T21:13:51.037Z,99.90
2018-05-12T21:16:18.545Z,99.90
2018-05-12T21:18:46.091Z,99.90
2018-05-12T21:21:13.591Z,99.90
2018-05-12T21:23:41.870Z,99.90
2018-05-12T21:26:09.300Z,99.90
2018-05-12T21:28:36.804Z,99.90
2018-05-12T21:31:04.251Z,99.90
2018-05-12T21:33:31.734Z,99.90
2018-05-12T21:35:59.199Z,99.90
2018-05-12T21:38:26.652Z,99.90
2018-05-12T21:40:54.134Z,99.90
2018-05-12T21:43:21.618Z,99.90
2018-05-12T21:45:49.084Z,99.90
2018-05-12T21:48:16.547Z,99.90
2018-05-12T21:50:44.012Z,99.90
2018-05-12T21:53:11.606Z,99.90
2018-05-12T21:55:39.068Z,99.90
2018-05-12T21:58:06.632Z,99.90
2018-05-12T22:00:34.109Z,99.90
2018-05-12T22:03:01.568Z,99.90
2018-05-12T22:05:29.031Z,99.90
2018-05-12T22:07:57.391Z,99.90
2018-05-12T22:10:24.893Z,99.90
2018-05-12T22:12:52.348Z,99.90
2018-05-12T22:15:19.834Z,99.90
2018-05-12T22:17:47.280Z,99.90
2018-05-12T22:20:14.733Z,99.90
2018-05-12T22:22:42.202Z,99.90
2018-05-12T22:25:09.732Z,99.90
2018-05-12T22:27:37.188Z,99.90
2018-05-12T22:30:04.662Z,99.90
2018-05-12T22:32:32.114Z,99.90
2018-05-12T22:34:59.573Z,99.90
2018-05-12T22:37:27.042Z,99.90
2018-05-12T22:39:54.531Z,99.90
2018-05-12T22:42:21.997Z,99.90
2018-05-12T22:44:49.455Z,99.90
2018-05-12T22:47:17.055Z,99.90
2018-05-12T22:49:45.201Z,99.90
2018-05-12T22:52:12.706Z,99.90
2018-05-12T22:54:40.283Z,99.90
2018-05-12T22:57:07.753Z,99.90
2018-05-12T22:59:35.330Z,99.90
2018-05-12T23:02:02.826Z,99.90
2018-05-12T23:04:31.062Z,99.90
2018-05-12T23:06:58.555Z,99.90
2018-05-12T23:09:26.108Z,99.90
2018-05-12T23:11:53.573Z,99.90
2018-05-12T23:14:21.050Z,99.90
2018-05-12T23:16:48.510Z,99.90
2018-05-12T23:19:15.984Z,99.90
2018-05-12T23:21:43.440Z,99.90
2018-05-12T23:24:10.901Z,99.90
2018-05-12T23:26:38.377Z,99.90
2018-05-12T23:29:05.832Z,99.90
2018-05-12T23:31:33.374Z,99.90
2018-05-12T23:34:00.904Z,99.90
2018-05-12T23:36:28.476Z,99.90
2018-05-12T23:38:55.942Z,99.90
2018-05-12T23:41:23.434Z,99.90
2018-05-12T23:43:50.984Z,99.90
2018-05-12T23:46:18.443Z,99.90
2018-05-12T23:48:45.955Z,99.90
2018-05-12T23:51:13.563Z,99.90
2018-05-12T23:53:40.982Z,99.90
2018-05-12T23:56:08.543Z,99.90
2018-05-12T23:58:36.008Z,99.90
